Time;durP1;ratioP1;P1;durP2;ratioP2;P2;SDS_P1;SDS_P2;PMS_P1;PMS_P2;Temp;Humidity;BMP_temperature;BMP_pressure;BME280_temperature;BME280_humidity;BME280_pressure;Samples;Min_cycle;Max_cycle;Signal;HPM_P1;HPM_P2
2021/04/25 00:00:36;;;;;;;8.60;3.60;;;;;;;;;;5003477;28;20051;-80
2021/04/25 00:03:05;;;;;;;8.52;3.50;;;;;;;;;;5001424;28;20022;-80
2021/04/25 00:05:37;;;;;;;8.57;4.28;;;;;;;;;;5008713;28;20045;-79
2021/04/25 00:08:05;;;;;;;8.07;3.50;;;;;;;;;;5010556;28;20037;-78
2021/04/25 00:10:32;;;;;;;7.72;3.58;;;;;;;;;;5007430;28;20504;-79
2021/04/25 00:12:59;;;;;;;9.35;3.45;;;;;;;;;;4996761;28;20117;-79
2021/04/25 00:15:28;;;;;;;6.95;2.75;;;;;;;;;;4987490;28;20026;-80
2021/04/25 00:17:55;;;;;;;8.50;3.00;;;;;;;;;;4999790;28;20033;-79
2021/04/25 00:20:24;;;;;;;8.52;3.78;;;;;;;;;;4997868;28;20033;-79
2021/04/25 00:22:53;;;;;;;8.70;3.30;;;;;;;;;;4968694;28;20149;-79
2021/04/25 00:25:23;;;;;;;8.02;3.00;;;;;;;;;;4970097;28;20050;-79
2021/04/25 00:27:52;;;;;;;7.90;3.13;;;;;;;;;;4976663;28;20601;-79
2021/04/25 00:30:22;;;;;;;9.57;3.10;;;;;;;;;;4975134;28;20046;-79
2021/04/25 00:32:49;;;;;;;6.93;2.45;;;;;;;;;;4974410;28;20552;-79
2021/04/25 00:35:19;;;;;;;9.30;2.88;;;;;;;;;;4973696;28;20539;-79
2021/04/25 00:37:47;;;;;;;7.72;2.90;;;;;;;;;;4969517;28;20022;-79
2021/04/25 00:40:16;;;;;;;6.50;2.70;;;;;;;;;;4983502;28;20065;-79
2021/04/25 00:42:44;;;;;;;7.35;2.92;;;;;;;;;;4974664;28;20030;-79
2021/04/25 00:45:14;;;;;;;7.60;3.03;;;;;;;;;;4984710;28;20030;-80
2021/04/25 00:47:46;;;;;;;8.73;3.08;;;;;;;;;;4970930;28;20073;-79
2021/04/25 00:50:19;;;;;;;7.88;2.70;;;;;;;;;;4981569;28;20034;-79
2021/04/25 00:52:50;;;;;;;7.05;2.53;;;;;;;;;;4977648;28;20611;-80
2021/04/25 00:55:19;;;;;;;7.40;3.20;;;;;;;;;;4976908;28;20066;-80
2021/04/25 00:57:48;;;;;;;9.90;4.30;;;;;;;;;;4987302;28;20098;-79
2021/04/25 01:00:16;;;;;;;8.85;3.75;;;;;;;;;;4975435;28;20062;-79
2021/04/25 01:02:44;;;;;;;9.32;3.92;;;;;;;;;;4966711;28;20089;-80
2021/04/25 01:05:21;;;;;;;10.60;4.20;;;;;;;;;;4976356;28;20038;-79
2021/04/25 01:07:50;;;;;;;9.27;4.57;;;;;;;;;;4977981;28;20033;-80
2021/04/25 01:10:19;;;;;;;9.45;4.28;;;;;;;;;;4967151;28;20625;-80
2021/04/25 01:12:48;;;;;;;9.60;3.83;;;;;;;;;;4982845;28;20042;-79
2021/04/25 01:15:21;;;;;;;8.27;3.00;;;;;;;;;;5014325;28;20065;-79
2021/04/25 01:17:51;;;;;;;6.63;2.60;;;;;;;;;;5011166;28;20068;-80
2021/04/25 01:20:21;;;;;;;7.18;3.00;;;;;;;;;;5017142;28;20029;-80
2021/04/25 01:22:51;;;;;;;6.80;2.92;;;;;;;;;;5012093;28;20040;-79
2021/04/25 01:25:23;;;;;;;7.70;3.15;;;;;;;;;;4978774;28;20030;-79
2021/04/25 01:27:51;;;;;;;8.48;3.53;;;;;;;;;;5018483;28;20040;-79
2021/04/25 01:30:21;;;;;;;8.18;3.70;;;;;;;;;;5019494;28;20421;-79
2021/04/25 01:32:50;;;;;;;8.80;2.88;;;;;;;;;;5012798;28;20038;-79
2021/04/25 01:35:22;;;;;;;8.70;2.88;;;;;;;;;;5019473;28;20030;-80
2021/04/25 01:37:56;;;;;;;7.88;3.10;;;;;;;;;;5019505;28;20060;-79
2021/04/25 01:40:25;;;;;;;8.00;2.90;;;;;;;;;;5009932;28;20025;-80
2021/04/25 01:42:54;;;;;;;8.55;3.03;;;;;;;;;;5016170;28;20064;-79
2021/04/25 01:45:22;;;;;;;9.57;3.30;;;;;;;;;;5003542;28;20034;-80
2021/04/25 01:48:01;;;;;;;6.88;2.92;;;;;;;;;;5012313;28;20025;-79
2021/04/25 01:50:32;;;;;;;9.27;3.30;;;;;;;;;;5005844;28;20366;-78
2021/04/25 01:53:00;;;;;;;8.13;3.20;;;;;;;;;;5011950;28;20030;-78
2021/04/25 01:55:32;;;;;;;7.25;2.65;;;;;;;;;;5010155;28;20033;-78
2021/04/25 01:57:59;;;;;;;6.97;2.70;;;;;;;;;;5005827;28;20091;-78
2021/04/25 02:00:31;;;;;;;7.30;2.80;;;;;;;;;;5008962;28;20087;-78
2021/04/25 02:02:59;;;;;;;7.95;2.90;;;;;;;;;;5007390;28;20144;-78
2021/04/25 02:05:28;;;;;;;7.13;2.47;;;;;;;;;;5007073;28;20029;-78
2021/04/25 02:07:55;;;;;;;8.50;3.17;;;;;;;;;;5008582;28;20038;-78
2021/04/25 02:10:23;;;;;;;6.72;2.75;;;;;;;;;;5005693;28;20056;-78
2021/04/25 02:12:50;;;;;;;6.88;2.60;;;;;;;;;;5010790;28;20077;-78
2021/04/25 02:15:21;;;;;;;7.22;2.70;;;;;;;;;;5000406;28;20040;-78
2021/04/25 02:17:49;;;;;;;7.03;2.50;;;;;;;;;;5020346;28;20033;-79
2021/04/25 02:20:18;;;;;;;10.45;3.10;;;;;;;;;;5036751;28;20087;-78
2021/04/25 02:22:45;;;;;;;8.40;3.03;;;;;;;;;;5020505;28;20029;-78
2021/04/25 02:25:14;;;;;;;6.78;2.60;;;;;;;;;;5011597;28;20561;-78
2021/04/25 02:27:42;;;;;;;7.35;2.85;;;;;;;;;;5014202;28;20029;-78
2021/04/25 02:30:15;;;;;;;6.95;2.88;;;;;;;;;;5021384;28;20029;-78
2021/04/25 02:32:41;;;;;;;9.82;2.58;;;;;;;;;;4999654;28;20056;-78
2021/04/25 02:35:07;;;;;;;;;;;;;;;;;;5003828;28;20032;-77
2021/04/25 02:37:35;;;;;;;10.25;2.90;;;;;;;;;;5020857;28;19921;-77
2021/04/25 02:40:01;;;;;;;9.00;3.20;;;;;;;;;;5027018;28;20361;-78
2021/04/25 02:42:28;;;;;;;;;;;;;;;;;;5002246;28;20374;-79
2021/04/25 02:44:55;;;;;;;7.80;2.67;;;;;;;;;;5018152;28;19992;-78
2021/04/25 02:47:23;;;;;;;8.65;2.75;;;;;;;;;;5017387;28;20029;-78
2021/04/25 02:49:50;;;;;;;8.00;2.20;;;;;;;;;;5022940;28;20064;-79
2021/04/25 02:52:18;;;;;;;6.55;2.40;;;;;;;;;;5022379;28;20069;-79
2021/04/25 02:54:44;;;;;;;5.78;2.10;;;;;;;;;;5016429;28;20102;-78
2021/04/25 02:57:10;;;;;;;;;;;;;;;;;;5002033;28;20097;-78
2021/04/25 02:59:39;;;;;;;6.40;2.10;;;;;;;;;;5014354;28;23207;-78
2021/04/25 03:02:06;;;;;;;7.05;2.00;;;;;;;;;;5010784;28;20507;-79
2021/04/25 03:04:33;;;;;;;7.18;2.28;;;;;;;;;;5006643;28;20551;-78
2021/04/25 03:07:00;;;;;;;6.88;2.55;;;;;;;;;;4992031;28;20474;-78
2021/04/25 03:09:26;;;;;;;7.95;2.53;;;;;;;;;;5007067;28;20136;-79
2021/04/25 03:11:53;;;;;;;;;;;;;;;;;;5011573;28;20021;-78
2021/04/25 03:14:20;;;;;;;6.82;1.95;;;;;;;;;;5007339;28;19913;-79
2021/04/25 03:16:46;;;;;;;;;;;;;;;;;;5023906;28;20040;-79
2021/04/25 03:19:13;;;;;;;6.88;2.33;;;;;;;;;;5019938;28;19913;-79
2021/04/25 03:21:40;;;;;;;5.32;2.10;;;;;;;;;;5007820;28;21534;-79
2021/04/25 03:24:06;;;;;;;6.10;2.05;;;;;;;;;;5020836;28;20021;-80
2021/04/25 03:26:34;;;;;;;7.03;2.13;;;;;;;;;;5031787;28;20044;-78
2021/04/25 03:29:01;;;;;;;5.97;2.17;;;;;;;;;;5018464;28;20144;-79
2021/04/25 03:31:27;;;;;;;6.93;2.00;;;;;;;;;;5022985;28;20088;-79
2021/04/25 03:33:54;;;;;;;7.07;2.03;;;;;;;;;;5026339;28;20079;-79
2021/04/25 03:36:21;;;;;;;6.40;1.70;;;;;;;;;;5022790;28;20363;-79
2021/04/25 03:38:48;;;;;;;4.97;1.77;;;;;;;;;;5032270;28;20054;-78
2021/04/25 03:41:15;;;;;;;4.65;1.85;;;;;;;;;;5019084;28;20021;-78
2021/04/25 03:43:41;;;;;;;5.88;1.80;;;;;;;;;;5029820;28;20025;-78
2021/04/25 03:46:08;;;;;;;;;;;;;;;;;;5033691;28;20097;-78
2021/04/25 03:48:34;;;;;;;6.50;1.70;;;;;;;;;;5019085;28;19920;-79
2021/04/25 03:51:00;;;;;;;;;;;;;;;;;;5006326;28;20029;-79
2021/04/25 03:53:26;;;;;;;6.80;1.83;;;;;;;;;;5020160;28;20365;-79
2021/04/25 03:55:52;;;;;;;;;;;;;;;;;;5008364;28;20034;-80
2021/04/25 03:58:19;;;;;;;7.22;2.00;;;;;;;;;;5033649;28;19928;-79
2021/04/25 04:00:45;;;;;;;6.00;1.92;;;;;;;;;;4999416;28;20030;-79
2021/04/25 04:03:11;;;;;;;5.75;1.77;;;;;;;;;;5004082;28;20508;-78
2021/04/25 04:05:38;;;;;;;;;;;;;;;;;;5026715;28;20614;-79
2021/04/25 04:08:06;;;;;;;6.10;1.83;;;;;;;;;;5023825;28;19912;-79
2021/04/25 04:10:33;;;;;;;6.78;1.70;;;;;;;;;;5008240;28;20069;-78
2021/04/25 04:13:00;;;;;;;5.25;1.70;;;;;;;;;;5000938;28;20037;-79
2021/04/25 04:15:26;;;;;;;5.15;1.80;;;;;;;;;;4992288;28;20140;-78
2021/04/25 04:17:53;;;;;;;;;;;;;;;;;;4998442;28;20114;-80
2021/04/25 04:20:21;;;;;;;7.28;2.22;;;;;;;;;;5009724;28;19917;-78
2021/04/25 04:22:47;;;;;;;6.22;1.85;;;;;;;;;;5004638;28;20033;-78
2021/04/25 04:25:14;;;;;;;;;;;;;;;;;;5009562;28;20390;-78
2021/04/25 04:27:43;;;;;;;6.03;1.98;;;;;;;;;;5008556;28;20456;-78
2021/04/25 04:30:11;;;;;;;7.00;1.90;;;;;;;;;;4996930;28;20040;-77
2021/04/25 04:32:40;;;;;;;5.88;1.83;;;;;;;;;;4994213;28;20088;-79
2021/04/25 04:35:12;;;;;;;7.80;1.95;;;;;;;;;;5013037;28;20136;-79
2021/04/25 04:37:40;;;;;;;8.55;2.00;;;;;;;;;;5025845;28;20038;-79
2021/04/25 04:40:11;;;;;;;6.07;1.90;;;;;;;;;;5011520;28;20494;-78
2021/04/25 04:42:39;;;;;;;5.80;1.70;;;;;;;;;;5015495;28;20069;-78
2021/04/25 04:45:13;;;;;;;6.30;1.60;;;;;;;;;;5010292;28;20026;-77
2021/04/25 04:47:58;;;;;;;6.78;2.00;;;;;;;;;;5003009;28;20045;-77
2021/04/25 04:50:25;;;;;;;6.43;1.73;;;;;;;;;;4999889;28;20045;-79
2021/04/25 04:52:53;;;;;;;7.88;2.03;;;;;;;;;;5015092;28;20144;-78
2021/04/25 04:55:19;;;;;;;7.07;2.15;;;;;;;;;;5019049;28;20415;-79
2021/04/25 04:57:47;;;;;;;5.47;1.70;;;;;;;;;;5009707;28;20037;-79
2021/04/25 05:00:14;;;;;;;7.78;2.20;;;;;;;;;;4999773;28;20129;-77
2021/04/25 05:02:45;;;;;;;7.68;2.20;;;;;;;;;;5002879;28;20026;-78
2021/04/25 05:05:14;;;;;;;7.28;2.13;;;;;;;;;;4994211;28;20069;-78
2021/04/25 05:07:41;;;;;;;6.88;2.03;;;;;;;;;;5003738;28;20045;-79
2021/04/25 05:10:09;;;;;;;10.60;2.13;;;;;;;;;;5006912;28;20041;-79
2021/04/25 05:12:37;;;;;;;7.70;1.90;;;;;;;;;;5005375;28;20037;-78
2021/04/25 05:15:16;;;;;;;6.95;1.90;;;;;;;;;;5015978;28;20030;-81
2021/04/25 05:17:44;;;;;;;6.65;2.00;;;;;;;;;;5013697;28;20072;-78
2021/04/25 05:20:13;;;;;;;6.78;2.10;;;;;;;;;;5020340;28;20022;-78
2021/04/25 05:22:41;;;;;;;7.53;2.00;;;;;;;;;;5017752;28;20029;-78
2021/04/25 05:25:08;;;;;;;13.73;2.50;;;;;;;;;;5029555;28;20259;-78
2021/04/25 05:27:38;;;;;;;8.38;2.50;;;;;;;;;;5020408;28;20035;-79
2021/04/25 05:30:06;;;;;;;8.50;2.08;;;;;;;;;;5019644;28;20037;-79
2021/04/25 05:32:36;;;;;;;8.00;2.40;;;;;;;;;;5004482;28;20042;-79
2021/04/25 05:35:03;;;;;;;7.88;2.35;;;;;;;;;;5023116;28;20513;-79
2021/04/25 05:37:30;;;;;;;7.70;2.10;;;;;;;;;;5019695;28;20045;-79
2021/04/25 05:39:58;;;;;;;9.88;3.17;;;;;;;;;;5008473;28;20115;-79
2021/04/25 05:42:26;;;;;;;9.90;3.10;;;;;;;;;;5001226;28;20068;-78
2021/04/25 05:44:54;;;;;;;9.98;3.50;;;;;;;;;;5002860;28;20041;-78
2021/04/25 05:47:25;;;;;;;9.20;3.35;;;;;;;;;;4994554;28;20053;-78
2021/04/25 05:49:52;;;;;;;10.30;3.10;;;;;;;;;;4976227;28;20034;-77
2021/04/25 05:52:18;;;;;;;9.27;3.20;;;;;;;;;;4986676;28;20069;-78
2021/04/25 05:54:45;;;;;;;8.25;2.80;;;;;;;;;;4995863;28;20030;-79
2021/04/25 05:57:13;;;;;;;8.20;2.30;;;;;;;;;;4993228;28;20089;-78
2021/04/25 05:59:40;;;;;;;8.57;2.35;;;;;;;;;;4987092;28;20633;-79
2021/04/25 06:02:08;;;;;;;6.30;1.95;;;;;;;;;;4990994;28;20058;-80
2021/04/25 06:04:40;;;;;;;8.38;2.28;;;;;;;;;;4983568;28;20030;-79
2021/04/25 06:07:09;;;;;;;9.13;2.63;;;;;;;;;;4972465;28;20336;-79
2021/04/25 06:09:38;;;;;;;9.80;2.22;;;;;;;;;;4992403;28;20041;-79
2021/04/25 06:12:07;;;;;;;7.80;2.67;;;;;;;;;;4985244;28;20059;-80
2021/04/25 06:14:34;;;;;;;8.02;2.80;;;;;;;;;;4997131;28;20036;-79
2021/04/25 06:17:03;;;;;;;11.20;2.95;;;;;;;;;;5005783;28;20041;-80
2021/04/25 06:19:30;;;;;;;7.35;2.55;;;;;;;;;;5003817;28;20481;-79
2021/04/25 06:21:56;;;;;;;9.27;3.35;;;;;;;;;;5010076;28;20036;-80
2021/04/25 06:24:25;;;;;;;9.27;3.33;;;;;;;;;;5006028;28;20021;-80
2021/04/25 06:26:54;;;;;;;8.35;3.33;;;;;;;;;;5011763;28;20613;-79
2021/04/25 06:29:21;;;;;;;8.90;3.67;;;;;;;;;;5008184;28;20026;-80
2021/04/25 06:31:49;;;;;;;8.90;3.42;;;;;;;;;;5022950;28;20062;-80
2021/04/25 06:34:16;;;;;;;8.05;3.25;;;;;;;;;;5006373;28;20014;-79
2021/04/25 06:36:44;;;;;;;8.38;2.90;;;;;;;;;;5016807;28;20138;-79
2021/04/25 06:39:12;;;;;;;10.88;3.55;;;;;;;;;;5009489;28;20112;-79
2021/04/25 06:41:40;;;;;;;9.07;3.13;;;;;;;;;;5006394;28;20061;-79
2021/04/25 06:44:08;;;;;;;7.72;2.63;;;;;;;;;;4991710;28;20037;-79
2021/04/25 06:46:36;;;;;;;7.65;2.47;;;;;;;;;;4988283;28;20402;-79
2021/04/25 06:49:03;;;;;;;9.90;2.50;;;;;;;;;;5007393;28;20049;-79
2021/04/25 06:51:30;;;;;;;9.55;3.10;;;;;;;;;;5010609;28;20026;-79
2021/04/25 06:53:57;;;;;;;8.23;2.33;;;;;;;;;;4996464;28;20434;-78
2021/04/25 06:56:27;;;;;;;9.63;3.25;;;;;;;;;;5006888;28;20028;-79
2021/04/25 06:58:55;;;;;;;10.02;2.85;;;;;;;;;;4999134;28;20029;-80
2021/04/25 07:01:22;;;;;;;8.02;2.20;;;;;;;;;;5006654;28;20606;-79
2021/04/25 07:03:53;;;;;;;7.60;2.28;;;;;;;;;;5000801;28;20060;-81
2021/04/25 07:06:22;;;;;;;9.32;2.30;;;;;;;;;;4979682;28;20042;-79
2021/04/25 07:08:49;;;;;;;8.93;2.22;;;;;;;;;;4997282;28;20120;-80
2021/04/25 07:11:16;;;;;;;9.55;2.80;;;;;;;;;;4993229;28;20049;-79
2021/04/25 07:13:46;;;;;;;14.30;2.50;;;;;;;;;;5000090;28;20088;-78
2021/04/25 07:16:14;;;;;;;9.20;2.65;;;;;;;;;;4993802;28;20036;-79
2021/04/25 07:18:42;;;;;;;9.82;2.33;;;;;;;;;;4979935;28;20141;-79
2021/04/25 07:21:09;;;;;;;9.30;2.42;;;;;;;;;;4994432;28;20080;-79
2021/04/25 07:23:37;;;;;;;10.60;2.72;;;;;;;;;;4994258;28;20073;-79
2021/04/25 07:26:08;;;;;;;8.45;2.30;;;;;;;;;;4989996;28;20041;-79
2021/04/25 07:28:37;;;;;;;6.88;2.20;;;;;;;;;;4963968;28;20180;-79
2021/04/25 07:31:12;;;;;;;10.15;2.38;;;;;;;;;;4986194;28;20125;-81
2021/04/25 07:33:41;;;;;;;10.10;2.30;;;;;;;;;;4984305;28;21006;-81
2021/04/25 07:36:09;;;;;;;8.73;2.50;;;;;;;;;;4989834;28;20143;-80
2021/04/25 07:38:42;;;;;;;8.27;2.10;;;;;;;;;;4965063;28;20204;-79
2021/04/25 07:41:11;;;;;;;8.38;2.28;;;;;;;;;;4975479;28;20048;-80
2021/04/25 07:43:39;;;;;;;8.32;2.38;;;;;;;;;;4985753;28;20052;-79
2021/04/25 07:46:06;;;;;;;9.43;2.40;;;;;;;;;;4970207;28;20056;-79
2021/04/25 07:48:35;;;;;;;11.75;2.47;;;;;;;;;;4941560;28;20037;-79
2021/04/25 07:51:04;;;;;;;10.20;2.33;;;;;;;;;;4952346;28;20449;-79
2021/04/25 07:53:32;;;;;;;7.70;2.08;;;;;;;;;;4948690;28;20110;-80
2021/04/25 07:56:00;;;;;;;7.35;1.90;;;;;;;;;;4982916;28;20038;-80
2021/04/25 07:58:30;;;;;;;8.73;2.22;;;;;;;;;;4975038;28;20053;-79
2021/04/25 08:01:03;;;;;;;8.15;2.05;;;;;;;;;;4957456;28;20046;-81
2021/04/25 08:03:32;;;;;;;7.10;2.00;;;;;;;;;;4966814;28;20041;-81
2021/04/25 08:06:00;;;;;;;11.48;2.50;;;;;;;;;;4947099;28;20059;-81
2021/04/25 08:08:30;;;;;;;9.73;2.40;;;;;;;;;;4944371;28;20070;-81
2021/04/25 08:11:06;;;;;;;10.32;2.40;;;;;;;;;;4944117;28;20559;-80
2021/04/25 08:13:32;;;;;;;11.95;2.80;;;;;;;;;;4951661;28;20039;-80
2021/04/25 08:16:01;;;;;;;8.73;2.40;;;;;;;;;;4959526;28;20084;-81
2021/04/25 08:18:28;;;;;;;8.05;2.10;;;;;;;;;;4957255;28;20039;-80
2021/04/25 08:20:58;;;;;;;9.57;2.22;;;;;;;;;;4967130;28;20055;-80
2021/04/25 08:23:28;;;;;;;9.48;2.10;;;;;;;;;;4964734;28;20030;-79
2021/04/25 08:26:04;;;;;;;8.18;2.40;;;;;;;;;;4988657;28;20027;-79
2021/04/25 08:28:36;;;;;;;8.73;2.30;;;;;;;;;;4954045;28;20066;-79
2021/04/25 08:31:03;;;;;;;9.00;2.30;;;;;;;;;;4994254;28;20038;-80
2021/04/25 08:33:31;;;;;;;11.60;2.40;;;;;;;;;;4965953;28;20049;-80
2021/04/25 08:35:58;;;;;;;6.38;2.03;;;;;;;;;;4966141;28;20126;-80
2021/04/25 08:38:25;;;;;;;11.52;2.40;;;;;;;;;;4963729;28;20035;-79
2021/04/25 08:40:51;;;;;;;9.43;2.10;;;;;;;;;;4960989;28;20034;-80
2021/04/25 08:43:21;;;;;;;7.15;1.88;;;;;;;;;;4945589;28;20022;-80
2021/04/25 08:45:50;;;;;;;9.68;2.40;;;;;;;;;;4944570;28;20027;-83
2021/04/25 08:48:28;;;;;;;8.35;2.00;;;;;;;;;;4964885;28;20034;-81
2021/04/25 08:50:56;;;;;;;8.38;2.45;;;;;;;;;;4951867;28;21047;-83
2021/04/25 08:53:24;;;;;;;11.05;3.20;;;;;;;;;;4961961;28;20070;-79
2021/04/25 08:55:52;;;;;;;9.50;2.67;;;;;;;;;;4948008;28;20097;-79
2021/04/25 08:58:21;;;;;;;11.68;2.67;;;;;;;;;;4946078;28;20146;-78
2021/04/25 09:00:50;;;;;;;9.43;2.45;;;;;;;;;;4947775;28;20047;-80
2021/04/25 09:03:21;;;;;;;8.68;2.60;;;;;;;;;;4948846;28;20058;-80
2021/04/25 09:05:50;;;;;;;9.63;2.15;;;;;;;;;;4946456;28;20031;-79
2021/04/25 09:08:19;;;;;;;9.13;2.38;;;;;;;;;;4948605;28;20035;-76
2021/04/25 09:10:54;;;;;;;10.95;2.80;;;;;;;;;;4941786;28;20042;-75
2021/04/25 09:13:26;;;;;;;12.18;3.35;;;;;;;;;;4940307;28;20035;-76
2021/04/25 09:15:57;;;;;;;10.00;2.75;;;;;;;;;;4946344;28;20525;-75
2021/04/25 09:18:35;;;;;;;11.20;2.90;;;;;;;;;;4943509;28;20042;-75
2021/04/25 09:21:12;;;;;;;9.85;2.58;;;;;;;;;;4933653;28;20034;-74
2021/04/25 09:23:40;;;;;;;12.52;3.33;;;;;;;;;;4967350;28;20052;-76
2021/04/25 09:26:10;;;;;;;11.55;2.85;;;;;;;;;;5006384;28;20025;-76
2021/04/25 09:28:41;;;;;;;12.07;3.30;;;;;;;;;;4996027;28;20187;-75
2021/04/25 09:31:15;;;;;;;10.35;3.47;;;;;;;;;;4985597;28;20100;-76
2021/04/25 09:33:56;;;;;;;8.57;2.65;;;;;;;;;;5002983;28;20589;-76
2021/04/25 09:36:30;;;;;;;9.70;2.90;;;;;;;;;;5002623;28;20033;-76
2021/04/25 09:39:18;;;;;;;11.15;3.33;;;;;;;;;;4983773;28;20061;-76
2021/04/25 09:41:48;;;;;;;10.95;3.08;;;;;;;;;;4987072;28;20029;-75
2021/04/25 09:44:32;;;;;;;10.07;2.90;;;;;;;;;;5005842;28;20155;-79
2021/04/25 09:47:01;;;;;;;12.65;2.92;;;;;;;;;;5000237;28;20033;-78
2021/04/25 09:49:44;;;;;;;11.02;2.90;;;;;;;;;;5001137;28;20087;-78
2021/04/25 09:52:14;;;;;;;10.48;2.75;;;;;;;;;;4983216;28;20064;-79
2021/04/25 09:54:51;;;;;;;10.70;3.28;;;;;;;;;;5004908;28;20033;-79
2021/04/25 09:57:33;;;;;;;10.70;2.90;;;;;;;;;;4983785;28;20069;-79
2021/04/25 10:00:00;;;;;;;12.60;3.20;;;;;;;;;;4997534;28;20030;-79
2021/04/25 10:02:27;;;;;;;10.50;3.28;;;;;;;;;;5004924;28;20082;-80
2021/04/25 10:04:54;;;;;;;12.40;3.25;;;;;;;;;;5006282;28;20022;-80
2021/04/25 10:07:21;;;;;;;12.43;2.67;;;;;;;;;;5008482;28;20175;-79
2021/04/25 10:10:09;;;;;;;11.35;2.55;;;;;;;;;;5013161;28;20171;-79
2021/04/25 10:12:37;;;;;;;9.43;2.55;;;;;;;;;;5015055;28;20026;-80
2021/04/25 10:15:06;;;;;;;10.23;2.35;;;;;;;;;;5029180;28;20033;-80
2021/04/25 10:17:33;;;;;;;11.52;3.03;;;;;;;;;;5008632;28;20500;-77
2021/04/25 10:20:03;;;;;;;12.30;2.65;;;;;;;;;;5006447;28;20048;-78
2021/04/25 10:22:34;;;;;;;10.40;3.05;;;;;;;;;;5004635;28;20527;-78
2021/04/25 10:25:01;;;;;;;14.82;5.28;;;;;;;;;;4975084;28;20033;-77
2021/04/25 10:27:31;;;;;;;14.93;4.13;;;;;;;;;;5001026;28;20036;-77
2021/04/25 10:30:01;;;;;;;10.68;3.38;;;;;;;;;;5006024;28;20036;-77
2021/04/25 10:32:29;;;;;;;10.32;2.80;;;;;;;;;;5003667;28;20058;-77
2021/04/25 10:35:14;;;;;;;10.07;2.50;;;;;;;;;;5008605;28;20040;-77
2021/04/25 10:37:43;;;;;;;13.25;3.10;;;;;;;;;;4994564;28;20040;-77
2021/04/25 10:40:23;;;;;;;15.43;3.45;;;;;;;;;;4992114;28;20486;-77
2021/04/25 10:43:01;;;;;;;10.80;3.15;;;;;;;;;;5003865;28;20029;-78
2021/04/25 10:45:35;;;;;;;10.85;2.88;;;;;;;;;;4989377;28;20021;-79
2021/04/25 10:48:21;;;;;;;12.43;2.88;;;;;;;;;;4991866;28;20059;-79
2021/04/25 10:50:50;;;;;;;11.18;2.90;;;;;;;;;;5007168;28;20536;-76
2021/04/25 10:53:21;;;;;;;9.57;2.83;;;;;;;;;;5008596;28;20022;-77
2021/04/25 10:55:52;;;;;;;9.32;2.72;;;;;;;;;;5010861;28;20608;-75
2021/04/25 10:58:23;;;;;;;9.77;3.10;;;;;;;;;;5002972;28;20036;-76
2021/04/25 11:00:52;;;;;;;10.40;2.90;;;;;;;;;;4990084;28;20033;-78
2021/04/25 11:03:24;;;;;;;10.75;2.95;;;;;;;;;;4989875;28;20346;-76
2021/04/25 11:05:54;;;;;;;13.90;3.10;;;;;;;;;;5002359;28;20033;-76
2021/04/25 11:08:34;;;;;;;12.50;2.75;;;;;;;;;;4989603;28;20069;-76
2021/04/25 11:11:11;;;;;;;9.13;2.40;;;;;;;;;;4983371;28;20042;-78
2021/04/25 11:13:47;;;;;;;8.90;2.20;;;;;;;;;;5005672;28;21721;-78
2021/04/25 11:16:24;;;;;;;9.63;2.45;;;;;;;;;;5009451;28;20484;-77
2021/04/25 11:19:10;;;;;;;7.88;2.45;;;;;;;;;;5005585;28;20033;-77
2021/04/25 11:21:46;;;;;;;9.85;2.50;;;;;;;;;;5004016;28;21168;-77
2021/04/25 11:24:27;;;;;;;8.90;2.45;;;;;;;;;;4997291;28;20041;-78
2021/04/25 11:26:56;;;;;;;9.95;2.53;;;;;;;;;;4999429;28;21421;-79
2021/04/25 11:29:43;;;;;;;10.20;2.70;;;;;;;;;;5001562;28;20029;-81
2021/04/25 11:32:32;;;;;;;11.32;2.70;;;;;;;;;;4988931;28;20037;-80
2021/04/25 11:35:01;;;;;;;13.23;2.90;;;;;;;;;;4999108;28;20044;-79
2021/04/25 11:37:30;;;;;;;9.05;2.83;;;;;;;;;;5002863;28;20524;-80
2021/04/25 11:40:10;;;;;;;9.13;2.42;;;;;;;;;;5006554;28;20032;-78
2021/04/25 11:42:50;;;;;;;8.77;2.03;;;;;;;;;;4987078;28;20120;-78
2021/04/25 11:48:15;;;;;;;10.23;2.90;;;;;;;;;;5002320;28;20199;-80
2021/04/25 11:50:46;;;;;;;10.85;2.90;;;;;;;;;;5002258;28;20080;-78
2021/04/25 11:53:31;;;;;;;10.60;2.67;;;;;;;;;;5012134;28;20030;-83
2021/04/25 11:56:00;;;;;;;9.45;3.00;;;;;;;;;;5020755;28;20040;-84
2021/04/25 11:58:28;;;;;;;13.90;4.20;;;;;;;;;;5002651;28;20026;-84
2021/04/25 12:00:56;;;;;;;12.23;4.10;;;;;;;;;;5022260;28;20036;-83
2021/04/25 12:03:23;;;;;;;11.10;3.95;;;;;;;;;;5009905;28;20053;-83
2021/04/25 12:05:56;;;;;;;10.32;3.13;;;;;;;;;;5017554;28;20028;-85
2021/04/25 12:08:23;;;;;;;9.18;2.70;;;;;;;;;;4969941;28;20040;-80
2021/04/25 12:10:53;;;;;;;10.35;2.15;;;;;;;;;;4994622;28;20184;-79
2021/04/25 12:13:22;;;;;;;8.90;2.17;;;;;;;;;;4983976;28;20046;-80
2021/04/25 12:16:04;;;;;;;8.55;2.13;;;;;;;;;;4984992;28;20044;-81
2021/04/25 12:18:34;;;;;;;10.13;2.20;;;;;;;;;;4990571;28;20030;-83
2021/04/25 12:21:02;;;;;;;6.93;1.77;;;;;;;;;;4991519;28;20641;-81
2021/04/25 12:23:43;;;;;;;9.85;2.40;;;;;;;;;;4985109;28;20085;-81
2021/04/25 12:26:11;;;;;;;8.75;2.15;;;;;;;;;;4989058;28;20044;-80
2021/04/25 12:28:43;;;;;;;9.45;2.58;;;;;;;;;;4980540;28;20069;-80
2021/04/25 12:31:21;;;;;;;14.13;2.42;;;;;;;;;;4975502;28;20050;-82
2021/04/25 12:33:56;;;;;;;8.70;2.22;;;;;;;;;;4965336;28;20175;-81
2021/04/25 12:36:23;;;;;;;;;;;;;;;;;;4987113;28;20056;-81
2021/04/25 12:39:19;;;;;;;8.02;2.05;;;;;;;;;;4989069;28;19917;-81
2021/04/25 12:41:52;;;;;;;8.60;2.53;;;;;;;;;;4936199;28;20043;-82
2021/04/25 12:44:36;;;;;;;10.00;3.90;;;;;;;;;;4941350;28;20051;-82
2021/04/25 12:47:06;;;;;;;11.52;2.75;;;;;;;;;;4944555;28;20048;-81
2021/04/25 12:49:36;;;;;;;8.45;2.70;;;;;;;;;;4939164;28;20086;-81
2021/04/25 12:52:07;;;;;;;10.25;2.72;;;;;;;;;;4943796;28;20035;-82
2021/04/25 12:54:44;;;;;;;10.35;3.80;;;;;;;;;;4937143;28;20031;-82
2021/04/25 12:57:11;;;;;;;10.00;2.10;;;;;;;;;;4927843;28;20089;-81
2021/04/25 12:59:39;;;;;;;12.48;4.10;;;;;;;;;;4942890;28;20344;-80
2021/04/25 13:02:17;;;;;;;12.27;3.00;;;;;;;;;;4943656;28;20034;-81
2021/04/25 13:04:52;;;;;;;10.50;3.92;;;;;;;;;;4945653;28;20138;-80
2021/04/25 13:07:21;;;;;;;10.52;3.65;;;;;;;;;;4942200;28;20019;-81
2021/04/25 13:10:08;;;;;;;9.82;3.13;;;;;;;;;;4927158;28;20082;-82
2021/04/25 13:12:45;;;;;;;11.73;5.10;;;;;;;;;;4943480;28;20190;-80
2021/04/25 13:15:39;;;;;;;9.27;3.42;;;;;;;;;;4946262;28;20035;-82
2021/04/25 13:18:22;;;;;;;11.10;4.45;;;;;;;;;;4964762;28;20123;-82
2021/04/25 13:20:53;;;;;;;11.02;2.65;;;;;;;;;;4975723;28;20121;-81
2021/04/25 13:23:35;;;;;;;8.45;2.40;;;;;;;;;;4969453;28;20139;-83
2021/04/25 13:26:07;;;;;;;10.98;4.13;;;;;;;;;;4986870;28;20042;-82
2021/04/25 13:28:39;;;;;;;12.93;2.33;;;;;;;;;;4968656;28;20057;-82
2021/04/25 13:31:10;;;;;;;14.27;2.63;;;;;;;;;;4994636;28;20037;-83
2021/04/25 13:33:41;;;;;;;7.55;2.38;;;;;;;;;;4980588;28;20045;-80
2021/04/25 13:36:11;;;;;;;9.63;2.67;;;;;;;;;;4996203;28;20037;-77
2021/04/25 13:38:40;;;;;;;11.32;3.17;;;;;;;;;;4976129;28;21570;-80
2021/04/25 13:41:07;;;;;;;12.13;2.90;;;;;;;;;;4980157;28;20044;-79
2021/04/25 13:43:35;;;;;;;9.02;3.15;;;;;;;;;;4979136;28;20037;-82
2021/04/25 13:46:03;;;;;;;10.52;3.15;;;;;;;;;;4946705;28;20039;-82
2021/04/25 13:48:38;;;;;;;9.93;2.60;;;;;;;;;;4950052;28;20097;-82
2021/04/25 13:51:16;;;;;;;11.07;2.70;;;;;;;;;;4947452;28;20093;-80
2021/04/25 13:53:44;;;;;;;8.95;2.40;;;;;;;;;;4944680;28;20081;-80
2021/04/25 13:56:23;;;;;;;10.70;2.63;;;;;;;;;;4946325;28;20038;-81
2021/04/25 13:58:49;;;;;;;12.00;2.80;;;;;;;;;;4942815;28;20054;-82
2021/04/25 14:01:19;;;;;;;12.13;2.53;;;;;;;;;;4940216;28;20035;-82
2021/04/25 14:03:46;;;;;;;7.90;2.40;;;;;;;;;;4947767;28;20071;-83
2021/04/25 14:06:12;;;;;;;11.65;2.80;;;;;;;;;;4963959;28;20050;-82
2021/04/25 14:08:39;;;;;;;11.23;3.10;;;;;;;;;;4958042;28;20039;-82
2021/04/25 14:11:09;;;;;;;9.60;3.13;;;;;;;;;;4960281;28;20442;-83
2021/04/25 14:13:41;;;;;;;11.15;3.30;;;;;;;;;;4956058;28;20043;-82
2021/04/25 14:16:23;;;;;;;11.13;3.33;;;;;;;;;;4950214;28;20026;-81
2021/04/25 14:19:02;;;;;;;10.52;2.67;;;;;;;;;;4980958;28;20053;-85
2021/04/25 14:21:34;;;;;;;10.85;2.55;;;;;;;;;;4992360;28;20880;-81
2021/04/25 14:24:13;;;;;;;10.35;3.40;;;;;;;;;;4977919;28;20042;-82
2021/04/25 14:26:40;;;;;;;11.75;3.85;;;;;;;;;;4982039;28;20450;-79
2021/04/25 14:29:09;;;;;;;9.82;2.97;;;;;;;;;;4961805;28;20037;-80
2021/04/25 14:31:39;;;;;;;9.45;2.80;;;;;;;;;;4992359;28;22293;-79
2021/04/25 14:34:06;;;;;;;12.05;3.30;;;;;;;;;;4999362;28;20032;-79
2021/04/25 14:36:33;;;;;;;10.93;2.70;;;;;;;;;;5012818;28;20041;-82
2021/04/25 14:39:00;;;;;;;10.73;2.90;;;;;;;;;;5007038;28;20109;-82
2021/04/25 14:41:26;;;;;;;9.85;2.53;;;;;;;;;;4996469;28;20025;-82
2021/04/25 14:44:06;;;;;;;9.45;3.20;;;;;;;;;;4992676;28;20030;-80
2021/04/25 14:46:36;;;;;;;10.00;2.67;;;;;;;;;;4977576;28;20024;-79
2021/04/25 14:49:04;;;;;;;10.15;2.67;;;;;;;;;;4979385;28;20030;-81
2021/04/25 14:51:55;;;;;;;10.73;2.70;;;;;;;;;;4993638;28;20033;-82
2021/04/25 14:54:41;;;;;;;9.80;2.97;;;;;;;;;;5000481;28;20664;-80
2021/04/25 14:57:07;;;;;;;;;;;;;;;;;;5008700;28;20045;-80
2021/04/25 14:59:33;;;;;;;;;;;;;;;;;;5005398;28;19920;-79
2021/04/25 15:01:59;;;;;;;11.82;4.25;;;;;;;;;;5009515;28;19916;-79
2021/04/25 15:04:25;;;;;;;14.57;5.63;;;;;;;;;;4977515;28;20045;-81